Latest Weather Observations for Newcastle Nobbys

IDN60801

Issued at 11:07 pm EDT Friday 30 January 2015 (issued every 30 minutes, with the page automatically refreshed every 10 minutes)

About weather observations | Map of weather stations | Latest weather observations for NSW | Other Formats
Station Details ID: 061055 Name: NEWCASTLE NOBBYS SIGNAL STATION AWS Lat: -32.92 Lon: 151.80 Height: 33.0 m
Data from the previous 72 hours. | See also: Recent months at Newcastle Nobbys
Date/Time
EDT
Temp
°C
App
Temp
°C
Dew
Point
Rel
Hum
%
Delta-T
°C
Wind Press
QNH
hPa
Press
MSL
hPa
Rain
since 9 am
mm
Dir
 
Spd
km/h
Gust
km/h
Spd
kts
Gust
kts
30/11:00pm 20.9 21.3 14.8 68 3.6 WSW 6 7 3 4 - - 0.0
30/10:30pm 21.2 20.6 15.7 71 3.3 SSW 13 19 7 10 - - 0.0
30/10:00pm 21.3 21.2 16.0 72 3.2 SSW 11 15 6 8 - - 0.0
30/09:30pm 21.6 22.0 17.2 76 2.7 SSW 11 15 6 8 - - 0.0
30/09:00pm 21.8 23.2 17.4 76 2.7 S 6 9 3 5 - - 0.0
30/08:30pm 21.8 22.2 16.3 71 3.3 S 9 11 5 6 - - 0.0
30/08:00pm 21.7 21.8 15.5 68 3.7 SSE 9 11 5 6 - - 0.0
30/07:30pm 22.0 22.6 15.8 68 3.7 SSE 7 9 4 5 - - 0.0
30/07:00pm 22.8 22.3 15.9 65 4.2 SSE 13 15 7 8 - - 0.0
30/06:30pm 22.9 21.7 15.0 61 4.7 SE 15 17 8 9 - - 0.0
30/06:00pm 22.9 20.9 13.9 57 5.3 SE 17 19 9 10 - - 0.0
30/05:30pm 22.8 20.9 14.1 58 5.1 SSE 17 17 9 9 - - 0.0
30/05:00pm 23.0 21.1 14.3 58 5.1 SSE 17 20 9 11 - - 0.0
30/04:30pm 22.8 20.9 13.0 54 5.6 SSE 15 17 8 9 - - 0.0
30/04:00pm 22.4 21.1 12.6 54 5.6 SE 11 15 6 8 - - 0.0
30/03:30pm 23.0 22.4 13.5 55 5.5 SE 9 13 5 7 - - 0.0
30/03:00pm 22.6 19.7 12.3 52 5.8 SSE 19 20 10 11 - - 0.0
30/02:30pm 22.3 19.6 13.4 57 5.1 SSE 20 24 11 13 - - 0.0
30/02:00pm 21.7 18.4 12.8 57 5.1 SSE 22 26 12 14 - - 0.0
30/01:30pm 22.4 20.6 13.2 56 5.3 SSE 15 20 8 11 - - 0.0
30/01:00pm 24.4 23.1 11.4 44 7.3 WSW 9 19 5 10 - - 0.0
30/12:30pm 22.7 19.9 11.4 49 6.3 S 17 20 9 11 - - 0.0
30/12:00pm 22.5 20.1 11.3 49 6.2 SSW 15 20 8 11 - - 0.0
30/11:30am 21.8 18.9 10.9 50 6.0 S 17 22 9 12 - - 0.0
30/11:00am 21.0 17.3 10.2 50 5.9 S 20 24 11 13 - - 0.0
30/10:30am 20.8 18.0 10.0 50 5.8 SSW 15 20 8 11 - - 0.0
30/10:00am 20.1 16.5 8.4 47 6.1 SW 17 24 9 13 - - 0.0
30/09:30am 20.0 17.2 9.9 52 5.4 WSW 15 20 8 11 - - 0.0
30/09:00am 19.3 17.3 10.0 55 5.0 WSW 11 22 6 12 - - 0.0
30/08:30am 18.3 15.6 10.2 59 4.3 W 15 20 8 11 - - 0.0
30/08:00am 17.3 15.5 10.9 66 3.4 WNW 11 17 6 9 - - 0.0
30/07:30am 16.0 14.4 10.1 68 3.1 NW 9 13 5 7 - - 0.0
30/07:00am 15.7 14.2 10.7 72 2.7 WNW 9 11 5 6 - - 0.0
30/06:30am 15.4 13.5 10.6 73 2.5 NW 11 13 6 7 - - 0.0
30/06:00am 15.9 14.1 10.9 72 2.7 WNW 11 15 6 8 - - 0.0
30/05:30am 16.1 13.9 10.8 71 2.8 WNW 13 19 7 10 - - 0.0
30/05:00am 16.2 14.0 10.7 70 2.9 WNW 13 17 7 9 - - 0.0
30/04:30am 16.3 14.9 10.8 70 2.9 WNW 9 11 5 6 - - 0.0
30/04:00am 16.4 14.6 10.7 69 3.0 W 11 15 6 8 - - 0.0
30/03:30am 16.5 14.3 10.8 69 3.0 W 13 19 7 10 - - 0.0
30/03:00am 16.7 14.9 11.0 69 3.1 WNW 11 17 6 9 - - 0.0
30/02:30am 17.5 15.4 11.1 66 3.5 W 13 17 7 9 - - 0.0
30/02:00am 17.5 15.2 10.4 63 3.8 WSW 13 19 7 10 - - 0.0
30/01:30am 17.0 15.0 11.5 70 3.0 WNW 13 15 7 8 - - 0.0
30/01:00am 17.4 15.1 11.9 70 3.0 W 15 20 8 11 - - 0.0
30/12:30am 18.3 15.9 12.7 70 3.1 W 17 20 9 11 - - 0.0
30/12:00am 18.9 16.4 12.2 65 3.7 SW 17 26 9 14 - - 0.0
 
Date/Time
EDT
Temp
°C
App
Temp
°C
Dew
Point
Rel
Hum
%
Delta-T
°C
Wind Press
QNH
hPa
Press
MSL
hPa
Rain
since 9 am
mm
Dir
 
Spd
km/h
Gust
km/h
Spd
kts
Gust
kts
29/11:33pm 19.6 14.3 12.6 64 3.9 SW 32 50 17 27 - - 0.0
29/11:30pm 19.8 13.6 12.6 63 4.1 SSW 37 52 20 28 - - 0.0
29/11:00pm 20.1 14.3 13.8 67 3.6 SSW 37 50 20 27 - - 0.0
29/10:30pm 20.1 13.1 13.6 66 3.7 SSW 43 54 23 29 - - 0.0
29/10:00pm 20.1 13.6 12.8 63 4.1 SSW 39 48 21 26 - - 0.0
29/09:30pm 20.5 15.3 14.4 68 3.6 SSW 35 48 19 26 - - 0.0
29/09:00pm 20.6 14.8 12.6 60 4.5 SSW 35 50 19 27 - - 0.0
29/08:30pm 20.5 14.3 12.5 60 4.5 SSW 37 48 20 26 - - 0.0
29/08:00pm 20.9 15.1 12.6 59 4.7 SSW 35 43 19 23 - - 0.0
29/07:30pm 20.8 14.0 12.0 57 4.9 SSW 39 52 21 28 - - 0.0
29/07:00pm 20.9 14.0 12.8 60 4.6 SSW 41 54 22 29 - - 0.0
29/06:30pm 20.9 12.6 11.5 55 5.2 S 46 56 25 30 - - 0.0
29/06:00pm 20.8 13.5 12.8 60 4.5 S 43 48 23 26 - - 0.0
29/05:30pm 20.6 14.0 12.6 60 4.5 SSW 39 48 21 26 - - 0.0
29/05:00pm 20.6 13.6 12.6 60 4.5 S 41 50 22 27 - - 0.0
29/04:30pm 20.5 13.7 13.2 63 4.2 SSW 41 48 22 26 - - 0.0
29/04:00pm 20.7 13.7 12.4 59 4.7 S 41 50 22 27 - - 0.0
29/03:30pm 20.6 13.8 11.8 57 4.9 S 39 46 21 25 - - 0.0
29/03:00pm 20.5 13.3 12.0 58 4.7 S 41 48 22 26 - - 0.0
29/02:30pm 20.3 13.0 11.5 57 4.9 S 41 48 22 26 - - 0.0
29/02:00pm 20.3 13.2 12.3 60 4.5 S 41 46 22 25 - - 0.0
29/01:30pm 20.3 14.1 12.5 61 4.4 S 37 44 20 24 - - 0.0
29/01:00pm 20.3 14.4 12.3 60 4.5 S 35 41 19 22 - - 0.0
29/12:30pm 20.4 15.1 12.4 60 4.5 SSW 32 39 17 21 - - 0.0
29/12:00pm 20.3 15.7 12.3 60 4.5 SSW 28 35 15 19 - - 0.0
29/11:30am 20.2 16.4 12.4 61 4.4 SSW 24 33 13 18 - - 0.0
29/11:00am 19.7 15.5 12.5 63 4.0 SSW 26 35 14 19 - - 0.0
29/10:30am 19.5 15.3 12.3 63 4.0 SSW 26 33 14 18 - - 0.0
29/10:00am 19.0 14.3 12.0 64 3.9 SSW 28 39 15 21 - - 0.0
29/09:30am 18.9 14.7 12.4 66 3.6 SW 26 41 14 22 - - 0.0
29/09:00am 18.6 14.9 12.6 68 3.4 SW 24 35 13 19 - - 3.0
29/08:30am 18.3 14.5 12.3 68 3.3 SW 24 39 13 21 - - 3.0
29/08:00am 17.6 14.1 12.1 70 3.0 SW 22 37 12 20 - - 3.0
29/07:30am 16.9 13.9 12.0 73 2.7 WSW 19 30 10 16 - - 3.0
29/07:00am 16.5 14.0 12.3 76 2.3 WSW 17 26 9 14 - - 3.0
29/06:30am 16.5 13.6 12.8 79 2.1 WSW 20 32 11 17 - - 3.0
29/06:00am 16.6 14.4 13.3 81 1.9 WSW 17 26 9 14 - - 3.0
29/05:30am 16.8 14.1 13.5 81 1.9 WSW 20 32 11 17 - - 3.0
29/05:00am 16.6 14.9 13.7 83 1.6 WSW 15 26 8 14 - - 3.0
29/04:30am 17.1 14.5 13.8 81 1.9 SW 20 32 11 17 - - 3.0
29/04:00am 17.0 14.6 14.3 84 1.5 SW 20 32 11 17 - - 3.0
29/03:30am 17.2 15.9 14.7 85 1.4 WSW 15 24 8 13 - - 3.0
29/03:00am 17.6 15.5 14.7 83 1.7 SW 19 33 10 18 - - 3.0
29/02:30am 17.9 15.2 14.6 81 1.9 SW 22 35 12 19 - - 3.0
29/02:00am 17.6 15.7 14.3 81 1.9 WSW 17 24 9 13 - - 3.0
29/01:30am 17.8 16.1 14.7 82 1.8 WSW 17 30 9 16 - - 3.0
29/01:00am 17.9 16.8 15.2 84 1.6 SW 15 22 8 12 - - 3.0
29/12:30am 18.0 16.9 15.3 84 1.6 WSW 15 24 8 13 - - 3.0
29/12:00am 18.6 16.0 16.0 85 1.5 SW 24 33 13 18 - - 3.0
 
Date/Time
EDT
Temp
°C
App
Temp
°C
Dew
Point
Rel
Hum
%
Delta-T
°C
Wind Press
QNH
hPa
Press
MSL
hPa
Rain
since 9 am
mm
Dir
 
Spd
km/h
Gust
km/h
Spd
kts
Gust
kts
28/11:30pm 19.2 14.1 15.7 80 2.1 SSW 37 52 20 28 - - 3.0
28/11:00pm 19.4 14.9 15.5 78 2.3 SSW 33 48 18 26 - - 3.0
28/10:49pm 19.2 15.8 15.7 80 2.1 SSW 28 46 15 25 - - 3.0
28/10:30pm 18.6 16.9 15.7 83 1.7 WSW 19 28 10 15 - - 3.0
28/10:00pm 18.7 16.6 15.2 80 2.1 WSW 20 33 11 18 - - 3.0
28/09:30pm 18.6 17.9 15.3 81 1.9 SW 13 24 7 13 - - 3.0
28/09:00pm 17.9 15.5 15.3 85 1.5 WSW 22 32 12 17 - - 3.0
28/08:43pm 18.9 16.6 15.8 82 1.8 SW 22 46 12 25 - - 3.0
28/08:30pm 18.5 17.3 15.0 80 2.0 SW 15 24 8 13 - - 3.0
28/08:00pm 18.1 15.2 16.1 88 1.2 SW 26 37 14 20 - - 3.0
28/07:30pm 19.2 16.7 16.2 83 1.8 SSW 24 37 13 20 - - 3.0
28/07:00pm 19.1 18.6 16.0 82 1.8 WSW 13 17 7 9 - - 3.0
28/06:30pm 18.7 17.9 15.2 80 2.1 WSW 13 19 7 10 - - 3.0
28/06:00pm 19.3 17.0 15.8 80 2.1 SW 22 32 12 17 - - 3.0
28/05:30pm 21.1 17.7 12.5 58 4.9 SSE 22 28 12 15 - - 3.0
28/05:00pm 21.4 17.7 13.8 62 4.4 S 26 37 14 20 - - 3.0
28/04:30pm 21.6 19.7 15.7 69 3.5 SW 20 28 11 15 - - 3.0
28/04:00pm 20.8 17.8 14.7 68 3.6 SSW 24 37 13 20 - - 3.0
28/03:30pm 21.6 16.7 12.5 56 5.2 SSE 30 35 16 19 - - 3.0
28/03:00pm 21.7 16.5 13.3 59 4.8 SSE 33 41 18 22 - - 3.0
28/02:30pm 21.4 15.5 12.5 57 5.0 S 35 43 19 23 - - 3.0
28/02:00pm 21.7 15.3 12.0 54 5.5 S 37 44 20 24 - - 3.0
28/01:30pm 21.8 15.6 12.6 56 5.2 SSE 37 43 20 23 - - 3.0
28/01:00pm 21.6 16.0 13.2 59 4.8 SSE 35 43 19 23 - - 3.0
28/12:30pm 21.5 16.1 12.9 58 4.9 SSE 33 39 18 21 - - 3.0
28/12:00pm 21.2 15.4 13.9 63 4.2 SSE 37 43 20 23 - - 3.0
28/11:30am 20.8 14.9 13.5 63 4.2 SSE 37 44 20 24 - - 3.0
28/11:00am 20.4 15.8 15.2 72 3.1 SSE 33 43 18 23 - - 3.0
28/10:55am 19.7 14.9 14.1 70 3.2 SSE 32 43 17 23 - - 3.0
28/10:30am 18.3 18.0 17.3 94 0.6 SSW 15 26 8 14 - - 2.8
28/10:00am 18.1 18.4 17.1 94 0.6 SW 11 19 6 10 - - 2.4
28/09:30am 18.0 15.8 17.0 94 0.6 S 24 30 13 16 - - 1.2
28/09:19am 18.1 15.6 17.1 94 0.6 SSW 26 37 14 20 - - 1.0
28/09:00am 18.7 19.0 17.9 95 0.5 W 13 17 7 9 - - 31.2
28/08:30am 18.5 18.3 17.7 95 0.5 W 15 19 8 10 - - 31.2
28/08:00am 18.3 18.8 17.5 95 0.5 WSW 11 17 6 9 - - 30.4
28/07:30am 18.2 19.5 17.2 94 0.6 WNW 6 7 3 4 - - 29.8
28/07:00am 18.1 19.4 17.1 94 0.6 SW 6 7 3 4 - - 28.8
28/06:30am 18.3 18.2 17.0 92 0.8 S 13 19 7 10 - - 26.2
28/06:00am 18.6 16.8 16.9 90 1.0 SE 22 32 12 17 - - 22.4
28/05:30am 19.9 20.2 18.0 89 1.2 SSW 13 28 7 15 - - 17.6
28/05:00am 20.1 21.8 17.1 83 1.8 W 4 6 2 3 - - 17.2
28/04:30am 20.5 23.0 17.3 82 2.0 CALM 0 0 0 0 - - 17.2
28/04:00am 20.6 21.2 16.8 79 2.3 E 9 11 5 6 - - 17.2
28/03:30am 20.7 20.0 16.5 77 2.5 E 15 19 8 10 - - 17.2
28/03:00am 19.9 20.5 16.7 82 1.9 NE 9 20 5 11 - - 17.2
28/02:30am 19.5 22.4 18.2 92 0.8 CALM 0 6 0 3 - - 17.2
28/02:00am 19.2 21.7 18.2 94 0.6 SW 2 4 1 2 - - 17.2
28/01:30am 19.1 20.2 18.1 94 0.6 W 9 11 5 6 - - 17.2
28/01:00am 19.0 20.7 18.0 94 0.6 WNW 6 6 3 3 - - 17.2
28/12:30am 19.1 20.8 18.1 94 0.6 NW 6 6 3 3 - - 17.2
28/12:00am 19.0 20.6 17.8 93 0.7 W 6 6 3 3 - - 17.2
 
Date/Time
EDT
Temp
°C
App
Temp
°C
Dew
Point
Rel
Hum
%
Delta-T
°C
Wind Press
QNH
hPa
Press
MSL
hPa
Rain
since 9 am
mm
Dir
 
Spd
km/h
Gust
km/h
Spd
kts
Gust
kts
27/11:30pm 19.3 19.7 18.1 93 0.7 W 13 17 7 9 - - 17.2

Other Formats:

Comma delimited format used in spreadsheet applications
http://www.bom.gov.au/fwo/IDN60801/IDN60801.94774.axf

JavaScript Object Notation format (JSON) in row-major order
http://www.bom.gov.au/fwo/IDN60801/IDN60801.94774.json